Aviation Digital Data Service (ADDS)

Output produced by METARs form (0352 UTC 26 June 2019)
found at http://www.aviationweather.gov/metar/data/
 
Forecast for: EHBK (ZUID-LIMBURG/BEE, NL)
Text: TAF EHBK 252310Z 2600/2706 27005KT CAVOK
Forecast period: 0000 to 1500 UTC 26 June 2019
Forecast type: FROM: standard forecast or significant change
Winds: from the W (270 degrees) at 6 MPH (5 knots; 2.6 m/s)
Visibility: 6 or more miles 10+ km)
Ceiling: unknown
Clouds: missing
Weather: NSW  (no significant weather)
Text: PROB30
Forecast period: 0200 to 0600 UTC 26 June 2019
Forecast type: TEMPORARY: The following changes expected for less than half the time period
Visibility: 2.49 miles (4.01 km)
Ceiling: at least 12,000 feet AGL
Clouds: scattered clouds at 800 feet AGL
Weather: BR  (mist)
Text: TEMPO 2602/2606 4000 BR SCT008
Forecast period: 1500 to 2100 UTC 26 June 2019
Forecast type: BECOMING: Conditions expected to become as follows by 1800 UTC 26 June 2019
Winds: from the N (360 degrees) at 12 MPH (10 knots; 5.1 m/s)
Visibility: 6 or more miles 10+ km)
Ceiling: unknown
Clouds: missing
Weather: NSW  (no significant weather)
Text: BECMG 2615/2618 36010KT
Forecast period: 2100 UTC 26 June 2019 to 0600 UTC 27 June 2019
Forecast type: BECOMING: Conditions expected to become as follows by 0000 UTC 27 June 2019
Winds: from the NNE (30 degrees) at 9 MPH (8 knots; 4.1 m/s)
Visibility: 6 or more miles 10+ km)
Ceiling: unknown
Clouds: missing
Weather: NSW  (no significant weather)